Time;durP1;ratioP1;P1;durP2;ratioP2;P2;SDS_P1;SDS_P2;PMS_P1;PMS_P2;Temp;Humidity;BMP_temperature;BMP_pressure;BME280_temperature;BME280_humidity;BME280_pressure;Samples;Min_cycle;Max_cycle;Signal;HPM_P1;HPM_P2
2023/08/18 00:02:05;;;;;;;8.30;5.97;;;;;;;20.20;67.78;101677.50;5063341;28;20045;-61
2023/08/18 00:04:34;;;;;;;8.52;5.57;;;;;;;20.19;67.97;101673.97;5063053;28;20486;-62
2023/08/18 00:07:02;;;;;;;10.00;6.13;;;;;;;20.19;67.82;101664.94;5056925;28;20178;-63
2023/08/18 00:09:30;;;;;;;7.93;5.53;;;;;;;20.19;67.58;101679.41;5043002;28;20430;-62
2023/08/18 00:11:58;;;;;;;9.57;5.47;;;;;;;20.19;67.54;101678.59;5042896;28;20071;-62
2023/08/18 00:14:26;;;;;;;7.57;4.88;;;;;;;20.19;67.57;101667.69;5043010;28;20045;-61
2023/08/18 00:16:54;;;;;;;8.30;5.47;;;;;;;20.18;67.54;101666.84;5042967;28;20049;-62
2023/08/18 00:19:21;;;;;;;8.60;5.75;;;;;;;20.19;67.42;101664.94;5043253;28;20050;-62
2023/08/18 00:21:51;;;;;;;10.65;5.43;;;;;;;20.18;67.34;101666.84;5042952;28;20098;-62
2023/08/18 00:24:19;;;;;;;9.90;6.50;;;;;;;20.18;67.40;101660.56;5043432;28;20045;-63
2023/08/18 00:26:47;;;;;;;6.88;5.55;;;;;;;20.18;67.31;101666.03;5052614;27;20231;-62
2023/08/18 00:29:15;;;;;;;5.63;4.70;;;;;;;20.17;67.20;101658.94;5042534;28;20057;-62
2023/08/18 00:31:43;;;;;;;7.32;5.78;;;;;;;20.17;67.19;101656.22;5043048;28;20049;-62
2023/08/18 00:34:12;;;;;;;8.48;6.15;;;;;;;20.16;67.36;101655.38;5056718;28;20049;-62
2023/08/18 00:36:39;;;;;;;6.45;5.25;;;;;;;20.16;67.21;101663.56;5075820;27;20065;-62
2023/08/18 00:39:09;;;;;;;8.55;5.97;;;;;;;20.15;67.15;101651.00;5147028;27;20073;-61
2023/08/18 00:41:37;;;;;;;9.40;6.47;;;;;;;20.14;67.34;101652.91;5145801;27;20047;-62
2023/08/18 00:44:05;;;;;;;8.77;5.72;;;;;;;20.15;67.19;101656.47;5085283;27;20048;-61
2023/08/18 00:46:33;;;;;;;8.05;4.88;;;;;;;20.13;67.22;101654.00;5062435;27;20078;-61
2023/08/18 00:49:05;;;;;;;7.68;5.85;;;;;;;20.13;67.09;101662.19;5058258;28;20041;-61
2023/08/18 00:51:35;;;;;;;8.82;5.30;;;;;;;20.13;67.05;101664.09;5042652;28;20045;-62
2023/08/18 00:54:04;;;;;;;7.90;5.18;;;;;;;20.13;67.07;101670.38;5050402;28;20048;-63
2023/08/18 00:56:34;;;;;;;8.93;5.40;;;;;;;20.12;66.96;101663.28;5062201;28;20106;-61
2023/08/18 00:59:05;;;;;;;8.52;5.68;;;;;;;20.11;66.99;101660.81;5062097;28;20077;-62
2023/08/18 01:01:33;;;;;;;7.72;4.95;;;;;;;20.12;66.97;101662.47;5044024;28;20137;-62
2023/08/18 01:04:02;;;;;;;9.82;5.68;;;;;;;20.11;66.96;101658.09;5042123;28;20045;-61
2023/08/18 01:06:31;;;;;;;7.70;5.07;;;;;;;20.11;66.79;101652.63;5042455;28;20078;-61
2023/08/18 01:08:59;;;;;;;8.82;6.53;;;;;;;20.09;67.01;101655.63;5048069;28;20044;-62
2023/08/18 01:11:35;;;;;;;11.90;6.60;;;;;;;20.08;66.92;101645.78;5062210;27;20072;-62
2023/08/18 01:14:16;;;;;;;8.70;6.07;;;;;;;20.07;67.02;101648.78;5061683;28;20046;-62
2023/08/18 01:16:49;;;;;;;11.15;6.53;;;;;;;20.06;67.06;101645.25;5062090;28;20102;-62
2023/08/18 01:19:21;;;;;;;10.50;6.55;;;;;;;20.06;67.00;101650.69;5060796;28;20128;-62
2023/08/18 01:21:53;;;;;;;10.45;7.18;;;;;;;20.06;67.03;101652.59;5057193;28;20053;-62
2023/08/18 01:24:24;;;;;;;15.05;6.45;;;;;;;20.04;66.90;101650.16;5042783;28;20046;-62
2023/08/18 01:26:52;;;;;;;12.25;6.55;;;;;;;20.04;66.96;101654.78;5046959;28;20053;-62
2023/08/18 01:29:21;;;;;;;10.15;5.97;;;;;;;20.04;67.05;101652.06;5041615;28;20057;-62
2023/08/18 01:31:54;;;;;;;11.98;6.30;;;;;;;20.02;66.95;101629.66;5045384;28;20459;-61
2023/08/18 01:34:25;;;;;;;13.02;6.95;;;;;;;20.01;67.01;101622.56;5061881;28;20051;-62
2023/08/18 01:36:56;;;;;;;10.10;6.38;;;;;;;20.01;66.77;101619.84;5056495;28;21186;-61
2023/08/18 01:39:27;;;;;;;11.18;6.90;;;;;;;20.00;66.89;101616.28;5041957;28;20046;-61
2023/08/18 01:41:56;;;;;;;10.50;6.55;;;;;;;20.00;66.82;101623.66;5055548;28;20060;-62
2023/08/18 01:44:23;;;;;;;14.65;6.28;;;;;;;19.99;66.79;101622.00;5061317;27;20067;-61
2023/08/18 01:46:51;;;;;;;9.98;5.95;;;;;;;19.99;66.76;101622.00;5061528;27;20049;-61
2023/08/18 01:49:20;;;;;;;10.95;5.40;;;;;;;19.98;66.79;101615.72;5056937;28;20060;-62
2023/08/18 01:51:49;;;;;;;8.13;5.28;;;;;;;19.97;66.73;101608.63;5041711;28;20105;-62
2023/08/18 01:54:17;;;;;;;9.68;6.00;;;;;;;19.95;66.67;101604.53;5051313;28;20089;-61
2023/08/18 01:56:46;;;;;;;8.98;5.70;;;;;;;19.95;66.78;101609.97;5064897;27;20101;-62
2023/08/18 01:59:15;;;;;;;8.50;5.10;;;;;;;19.94;66.61;101609.16;5056955;28;20041;-62
2023/08/18 02:01:43;;;;;;;8.25;5.20;;;;;;;19.94;66.56;101600.16;5045152;28;20045;-62
2023/08/18 02:04:11;;;;;;;7.13;5.22;;;;;;;19.93;66.59;101607.53;5052722;28;20052;-62
2023/08/18 02:06:38;;;;;;;7.30;4.82;;;;;;;19.93;66.59;101603.97;5064665;27;20049;-62
2023/08/18 02:09:06;;;;;;;11.55;5.30;;;;;;;19.92;66.61;101600.41;5065104;28;20077;-62
2023/08/18 02:11:34;;;;;;;11.40;5.15;;;;;;;19.91;66.46;101597.97;5048661;28;20049;-62
2023/08/18 02:14:04;;;;;;;7.45;4.70;;;;;;;19.91;66.51;101603.41;5044565;28;20095;-63
2023/08/18 02:16:32;;;;;;;8.70;4.97;;;;;;;19.91;66.50;101608.88;5051305;28;20049;-62
2023/08/18 02:19:00;;;;;;;8.95;4.47;;;;;;;19.90;66.51;101616.25;5064775;28;20049;-62
2023/08/18 02:21:30;;;;;;;7.07;4.50;;;;;;;19.90;66.39;101615.41;5064727;27;20451;-62
2023/08/18 02:23:58;;;;;;;6.82;4.88;;;;;;;19.90;66.34;101615.41;5054594;27;20071;-62
2023/08/18 02:26:26;;;;;;;5.82;3.92;;;;;;;19.90;66.33;101601.78;5044804;28;20050;-61
2023/08/18 02:28:54;;;;;;;7.65;4.68;;;;;;;19.89;66.34;101602.88;5049302;27;20057;-61
2023/08/18 02:31:23;;;;;;;6.68;4.50;;;;;;;19.88;66.38;101602.03;5051771;28;20061;-61
2023/08/18 02:33:51;;;;;;;8.43;4.55;;;;;;;19.89;66.34;101600.13;5064428;28;20057;-61
2023/08/18 02:36:19;;;;;;;7.15;4.65;;;;;;;19.88;66.33;101602.03;5066059;27;20049;-62
2023/08/18 02:38:47;;;;;;;7.15;4.68;;;;;;;19.80;66.26;101591.63;5148887;27;20103;-62
2023/08/18 02:41:17;;;;;;;7.03;4.78;;;;;;;19.87;66.17;101608.59;5091465;27;20078;-63
2023/08/18 02:43:47;;;;;;;7.57;4.90;;;;;;;19.78;66.26;101591.91;5044148;28;20063;-62
2023/08/18 02:46:16;;;;;;;7.68;4.05;;;;;;;19.86;66.21;101606.94;5044418;28;20061;-63
2023/08/18 02:48:45;;;;;;;6.75;4.32;;;;;;;19.86;66.27;101606.94;5043685;28;20116;-62
2023/08/18 02:51:13;;;;;;;8.98;5.00;;;;;;;19.85;66.09;101601.75;5044385;28;20098;-62
2023/08/18 02:53:41;;;;;;;9.15;4.95;;;;;;;19.85;66.20;101612.66;5044282;28;20066;-62
2023/08/18 02:56:09;;;;;;;10.13;5.50;;;;;;;19.83;66.27;101602.84;5044295;28;20098;-61
2023/08/18 02:58:37;;;;;;;8.50;5.25;;;;;;;19.84;66.25;101603.66;5051472;27;20057;-62
2023/08/18 03:01:06;;;;;;;8.65;5.85;;;;;;;19.81;66.35;101588.63;5064240;28;20482;-62
2023/08/18 03:03:34;;;;;;;8.07;5.25;;;;;;;19.80;66.21;101595.19;5062316;27;20073;-61
2023/08/18 03:06:05;;;;;;;9.02;5.70;;;;;;;19.80;66.37;101594.38;5063828;28;20055;-62
2023/08/18 03:08:35;;;;;;;8.80;5.50;;;;;;;19.80;66.22;101605.28;5063902;27;20072;-62
2023/08/18 03:11:03;;;;;;;8.93;5.90;;;;;;;19.78;66.30;101597.34;5045640;28;20049;-62
2023/08/18 03:13:32;;;;;;;11.30;5.95;;;;;;;19.78;66.33;101599.25;5043661;28;20060;-62
2023/08/18 03:15:59;;;;;;;10.27;5.97;;;;;;;19.77;66.22;101590.25;5060372;28;20070;-63
2023/08/18 03:18:28;;;;;;;8.20;5.50;;;;;;;19.75;66.34;101576.06;5062293;27;20085;-61
2023/08/18 03:21:00;;;;;;;11.48;5.50;;;;;;;19.66;66.44;101583.09;5024268;28;20053;-62
2023/08/18 03:23:30;;;;;;;9.57;6.13;;;;;;;19.74;66.38;101587.25;5036539;28;20041;-62
2023/08/18 03:26:02;;;;;;;8.68;5.78;;;;;;;19.74;66.29;101592.69;5043872;28;20038;-62
2023/08/18 03:28:31;;;;;;;10.15;6.50;;;;;;;19.74;66.29;101595.41;5058360;28;20045;-62
2023/08/18 03:31:01;;;;;;;11.40;5.43;;;;;;;19.73;66.35;101593.78;5062112;28;20055;-62
2023/08/18 03:33:30;;;;;;;7.65;5.18;;;;;;;19.72;66.28;101598.41;5063834;28;20049;-63
2023/08/18 03:35:59;;;;;;;8.82;6.28;;;;;;;19.71;66.36;101596.78;5061990;28;20041;-61
2023/08/18 03:38:27;;;;;;;12.18;6.65;;;;;;;19.71;66.31;101590.50;5140377;27;20043;-61
2023/08/18 03:41:01;;;;;;;9.35;5.90;;;;;;;19.69;66.43;101593.47;5147940;27;20061;-61
2023/08/18 03:43:28;;;;;;;10.88;7.53;;;;;;;19.69;66.42;101589.94;5075258;27;20049;-62
2023/08/18 03:46:00;;;;;;;11.98;7.65;;;;;;;19.60;66.64;101578.72;5063282;28;20040;-62
2023/08/18 03:48:28;;;;;;;9.13;6.88;;;;;;;19.67;66.58;101587.47;5063473;27;20041;-62
2023/08/18 03:50:56;;;;;;;9.80;6.70;;;;;;;19.66;66.60;101583.09;5046697;28;20051;-62
2023/08/18 03:53:24;;;;;;;11.10;7.28;;;;;;;19.66;66.60;101585.00;5042496;28;20049;-61
2023/08/18 03:55:55;;;;;;;11.15;7.65;;;;;;;19.65;66.45;101589.66;5063333;28;20053;-62
2023/08/18 03:58:25;;;;;;;9.10;6.40;;;;;;;19.63;66.38;101585.53;5062848;27;20569;-61
2023/08/18 04:01:01;;;;;;;8.77;6.15;;;;;;;19.65;66.40;101591.56;5057649;28;20054;-62
2023/08/18 04:03:29;;;;;;;10.38;7.05;;;;;;;19.64;66.53;101590.72;5043161;28;20046;-60
2023/08/18 04:05:57;;;;;;;13.52;7.68;;;;;;;19.64;66.58;101590.72;5043406;28;20041;-62
2023/08/18 04:08:26;;;;;;;10.35;6.47;;;;;;;19.62;66.58;101587.44;5043108;28;20049;-63
2023/08/18 04:10:54;;;;;;;12.68;7.95;;;;;;;19.62;66.56;101589.34;5043078;28;20106;-62
2023/08/18 04:13:21;;;;;;;11.05;7.30;;;;;;;19.60;66.67;101592.34;5043004;28;20049;-61
2023/08/18 04:15:51;;;;;;;11.30;7.63;;;;;;;19.60;66.72;101592.34;5042474;28;20037;-62
2023/08/18 04:18:19;;;;;;;12.15;8.02;;;;;;;19.60;66.82;101588.78;5043000;28;20045;-61
2023/08/18 04:20:47;;;;;;;12.88;7.90;;;;;;;19.57;66.58;101590.16;5043205;28;20060;-61
2023/08/18 04:23:15;;;;;;;11.18;7.38;;;;;;;19.57;66.65;101584.69;5056253;28;20110;-61
2023/08/18 04:25:43;;;;;;;14.98;8.05;;;;;;;19.56;66.74;101577.59;5043043;28;20041;-62
2023/08/18 04:28:11;;;;;;;11.18;7.13;;;;;;;19.56;66.61;101574.88;5055688;28;20049;-62
2023/08/18 04:30:39;;;;;;;11.60;6.47;;;;;;;19.57;66.67;101583.88;5062235;28;20085;-62
2023/08/18 04:33:09;;;;;;;12.27;7.28;;;;;;;19.57;66.47;101586.59;5084523;27;20043;-62
2023/08/18 04:35:37;;;;;;;10.43;7.00;;;;;;;19.56;66.56;101580.31;5144065;27;20050;-62
2023/08/18 04:38:05;;;;;;;14.43;8.45;;;;;;;19.56;66.72;101583.03;5124651;27;20065;-62
2023/08/18 04:40:33;;;;;;;10.85;6.95;;;;;;;19.55;66.74;101575.94;5041742;28;20057;-62
2023/08/18 04:43:01;;;;;;;12.77;8.13;;;;;;;19.56;66.73;101579.50;5041993;28;20054;-62
2023/08/18 04:45:29;;;;;;;12.00;6.78;;;;;;;19.54;66.56;101587.94;5042159;28;20095;-61
2023/08/18 04:47:57;;;;;;;12.60;8.18;;;;;;;19.54;66.74;101582.50;5046033;28;20048;-62
2023/08/18 04:50:28;;;;;;;13.30;7.93;;;;;;;19.53;66.62;101580.03;5049185;28;20500;-62
2023/08/18 04:52:55;;;;;;;13.48;8.40;;;;;;;19.52;66.75;101581.94;5047061;28;20053;-62
2023/08/18 04:55:23;;;;;;;12.40;8.57;;;;;;;19.52;66.83;101581.94;5058744;28;20070;-62
2023/08/18 04:57:52;;;;;;;15.93;8.68;;;;;;;19.52;66.90;101575.66;5062170;27;20085;-62
2023/08/18 05:00:20;;;;;;;13.32;9.02;;;;;;;19.50;67.13;101579.44;5062238;28;20056;-61
2023/08/18 05:02:48;;;;;;;13.13;8.93;;;;;;;19.50;67.04;101586.78;5042450;28;20095;-62
2023/08/18 05:05:16;;;;;;;14.05;9.20;;;;;;;19.49;67.00;101594.16;5042392;28;20049;-62
2023/08/18 05:07:46;;;;;;;16.23;8.95;;;;;;;19.49;66.93;101590.59;5042285;28;20053;-61
2023/08/18 05:10:14;;;;;;;13.18;8.77;;;;;;;19.49;67.01;101585.97;5042324;28;20113;-61
2023/08/18 05:12:42;;;;;;;12.82;8.15;;;;;;;19.49;66.74;101579.69;5050246;28;20066;-62
2023/08/18 05:15:11;;;;;;;12.68;8.88;;;;;;;19.49;67.04;101585.16;5061710;27;20057;-62
2023/08/18 05:17:38;;;;;;;10.35;7.57;;;;;;;19.48;67.04;101570.69;5061994;28;20097;-62
2023/08/18 05:20:07;;;;;;;15.13;8.75;;;;;;;19.49;66.82;101576.97;5058641;28;20080;-62
2023/08/18 05:22:35;;;;;;;12.75;8.40;;;;;;;19.48;66.99;101570.69;5042261;28;20050;-62
2023/08/18 05:25:05;;;;;;;15.32;9.02;;;;;;;19.47;67.06;101573.69;5042695;28;20056;-62
2023/08/18 05:27:33;;;;;;;13.25;8.73;;;;;;;19.47;67.02;101574.50;5053857;28;20044;-61
2023/08/18 05:30:01;;;;;;;14.65;8.70;;;;;;;19.47;67.11;101573.69;5060010;28;20066;-62
2023/08/18 05:32:29;;;;;;;14.52;9.60;;;;;;;19.41;67.27;101559.22;5045639;28;20052;-62
2023/08/18 05:34:57;;;;;;;12.60;8.35;;;;;;;19.45;67.13;101560.31;5060156;27;20071;-61
2023/08/18 05:37:25;;;;;;;12.55;8.55;;;;;;;19.44;67.41;101566.03;5067501;27;20049;-62
2023/08/18 05:39:54;;;;;;;13.30;8.88;;;;;;;19.43;67.26;101562.50;5065312;28;20097;-62
2023/08/18 05:42:24;;;;;;;13.15;9.38;;;;;;;19.42;67.39;101552.66;5063732;28;20074;-62
2023/08/18 05:44:52;;;;;;;14.43;8.88;;;;;;;19.42;67.53;101571.75;5063436;28;20059;-62
2023/08/18 05:47:19;;;;;;;15.45;9.85;;;;;;;19.41;67.58;101567.38;5046982;28;20049;-61
2023/08/18 05:49:47;;;;;;;16.75;9.15;;;;;;;19.42;67.43;101573.66;5045221;28;20041;-61
2023/08/18 05:52:15;;;;;;;14.23;9.65;;;;;;;19.41;67.39;101578.28;5045163;28;20101;-62
2023/08/18 05:54:43;;;;;;;14.20;9.13;;;;;;;19.41;67.59;101567.38;5043925;28;20049;-61
2023/08/18 05:57:12;;;;;;;14.15;9.73;;;;;;;19.41;67.66;101566.56;5044858;28;20053;-62
2023/08/18 05:59:41;;;;;;;12.48;8.45;;;;;;;19.40;67.48;101579.38;5044785;28;20049;-62
2023/08/18 06:02:09;;;;;;;13.18;8.05;;;;;;;19.40;67.52;101581.28;5045391;28;20053;-62
2023/08/18 06:04:37;;;;;;;11.27;8.45;;;;;;;19.41;67.45;101580.19;5056566;27;20098;-62
2023/08/18 06:07:05;;;;;;;13.75;8.73;;;;;;;19.39;67.53;101582.38;5064794;28;20063;-62
2023/08/18 06:09:33;;;;;;;14.15;9.30;;;;;;;19.39;67.68;101585.09;5065027;28;20045;-62
2023/08/18 06:12:00;;;;;;;11.65;8.23;;;;;;;19.39;67.64;101580.47;5063083;28;20073;-62
2023/08/18 06:14:28;;;;;;;12.07;8.18;;;;;;;19.38;67.73;101586.16;5064104;27;20048;-62
2023/08/18 06:16:57;;;;;;;11.65;8.35;;;;;;;19.36;67.57;101580.97;5044561;28;20083;-62
2023/08/18 06:19:25;;;;;;;14.98;10.05;;;;;;;19.36;67.68;101583.72;5044741;28;20078;-62
2023/08/18 06:21:53;;;;;;;13.18;9.70;;;;;;;19.36;67.81;101582.88;5044717;28;20083;-62
2023/08/18 06:24:21;;;;;;;14.00;9.10;;;;;;;19.36;67.62;101572.81;5045506;28;20057;-61
2023/08/18 06:26:49;;;;;;;14.52;9.32;;;;;;;19.36;67.81;101574.72;5047271;28;20041;-62
2023/08/18 06:29:17;;;;;;;14.77;8.85;;;;;;;19.36;67.78;101575.53;5064011;28;20053;-61
2023/08/18 06:31:44;;;;;;;14.93;8.85;;;;;;;19.36;67.89;101580.16;5055033;28;20056;-62
2023/08/18 06:34:14;;;;;;;13.10;9.70;;;;;;;19.34;67.83;101574.97;5057520;27;20450;-62
2023/08/18 06:36:42;;;;;;;14.88;9.70;;;;;;;19.36;67.91;101567.34;5080747;27;20039;-62
2023/08/18 06:39:10;;;;;;;14.38;9.98;;;;;;;19.35;68.06;101571.16;5147591;27;20389;-62
2023/08/18 06:41:39;;;;;;;14.35;10.80;;;;;;;19.34;68.07;101561.34;5138545;27;20058;-62
2023/08/18 06:44:07;;;;;;;13.38;9.23;;;;;;;19.35;68.20;101567.63;5044092;28;20065;-62
2023/08/18 06:46:35;;;;;;;14.00;9.60;;;;;;;19.34;67.94;101569.53;5044498;28;20118;-61
2023/08/18 06:49:03;;;;;;;14.27;9.75;;;;;;;19.36;67.97;101571.97;5044071;28;20050;-62
2023/08/18 06:51:32;;;;;;;13.07;9.63;;;;;;;19.35;68.00;101570.34;5044291;28;20056;-62
2023/08/18 06:54:01;;;;;;;14.65;9.85;;;;;;;19.35;68.06;101576.63;5038757;28;20124;-62
2023/08/18 06:56:29;;;;;;;16.38;10.45;;;;;;;19.34;68.07;101566.78;5044170;28;20072;-62
2023/08/18 06:58:58;;;;;;;13.60;8.38;;;;;;;19.34;67.82;101561.34;5043871;28;20045;-62
2023/08/18 07:01:26;;;;;;;14.40;9.52;;;;;;;19.35;67.93;101556.72;5061131;28;20053;-62
2023/08/18 07:03:54;;;;;;;14.10;10.57;;;;;;;19.35;68.01;101554.81;5064270;27;20049;-62
2023/08/18 07:06:22;;;;;;;15.95;9.90;;;;;;;19.35;68.13;101556.72;5064366;28;20053;-61
2023/08/18 07:08:51;;;;;;;14.35;9.90;;;;;;;19.34;68.13;101552.34;5062485;28;20049;-61
2023/08/18 07:11:19;;;;;;;12.57;9.50;;;;;;;19.34;68.20;101545.00;5063998;28;20045;-61
2023/08/18 07:13:47;;;;;;;14.80;10.85;;;;;;;19.35;68.42;101551.25;5063528;28;20071;-62
2023/08/18 07:16:15;;;;;;;13.23;8.98;;;;;;;19.35;68.29;101543.09;5062591;28;20053;-60
2023/08/18 07:18:43;;;;;;;12.20;8.90;;;;;;;19.35;68.05;101543.91;5023875;28;20077;-62
2023/08/18 07:21:11;;;;;;;13.65;8.18;;;;;;;19.35;68.23;101549.34;5024228;28;20050;-62
2023/08/18 07:23:39;;;;;;;13.63;8.60;;;;;;;19.36;68.00;101551.00;5048056;27;20519;-62
2023/08/18 07:26:08;;;;;;;13.38;8.73;;;;;;;19.36;67.99;101555.63;5043894;28;20075;-62
2023/08/18 07:28:36;;;;;;;12.25;8.55;;;;;;;19.38;68.15;101558.91;5044394;28;20464;-62
2023/08/18 07:31:05;;;;;;;11.95;8.05;;;;;;;19.37;67.98;101558.09;5042821;28;20074;-62
2023/08/18 07:33:34;;;;;;;12.15;7.15;;;;;;;19.36;67.71;101551.00;5052493;28;20049;-61
2023/08/18 07:36:02;;;;;;;11.98;8.68;;;;;;;19.38;67.96;101545.28;5063866;28;20056;-62
2023/08/18 07:38:31;;;;;;;12.88;9.43;;;;;;;19.37;68.18;101546.38;5048585;28;20046;-62
2023/08/18 07:40:59;;;;;;;13.20;9.48;;;;;;;19.38;68.47;101558.91;5043431;28;20049;-62
2023/08/18 07:43:28;;;;;;;12.85;9.15;;;;;;;19.36;68.23;101555.63;5043347;28;20053;-62
2023/08/18 07:45:56;;;;;;;11.13;8.90;;;;;;;19.36;68.06;101555.63;5060298;28;20140;-62
2023/08/18 07:48:24;;;;;;;12.63;8.73;;;;;;;19.37;68.37;101554.53;5063189;28;20045;-62
2023/08/18 07:50:52;;;;;;;12.35;8.50;;;;;;;19.37;68.18;101562.72;5046109;28;20061;-62
2023/08/18 07:53:20;;;;;;;11.05;8.15;;;;;;;19.38;68.34;101561.63;5037241;28;20503;-62
2023/08/18 07:55:48;;;;;;;11.00;7.63;;;;;;;19.38;68.04;101559.72;5043528;28;20049;-62
2023/08/18 07:58:16;;;;;;;13.40;9.18;;;;;;;19.38;68.05;101569.81;5042951;28;20072;-62
2023/08/18 08:00:47;;;;;;;14.35;9.18;;;;;;;19.39;68.16;101568.72;5048256;28;20044;-62
2023/08/18 08:03:16;;;;;;;12.52;8.68;;;;;;;19.39;68.42;101566.00;5063194;27;20486;-62
2023/08/18 08:05:44;;;;;;;11.93;8.35;;;;;;;19.39;68.11;101566.00;5063148;28;20070;-62
2023/08/18 08:08:12;;;;;;;10.95;8.55;;;;;;;19.38;68.03;101570.63;5062814;27;20052;-62
2023/08/18 08:10:40;;;;;;;11.68;8.88;;;;;;;19.39;68.32;101571.47;5053408;28;20050;-62
2023/08/18 08:13:08;;;;;;;15.18;10.32;;;;;;;19.39;68.40;101580.47;5042943;28;20125;-61
2023/08/18 08:15:36;;;;;;;12.45;8.73;;;;;;;19.38;68.22;101569.81;5042608;28;20049;-61
2023/08/18 08:18:06;;;;;;;11.38;8.23;;;;;;;19.39;68.10;101574.19;5042889;28;20117;-61
2023/08/18 08:20:39;;;;;;;12.27;9.40;;;;;;;19.40;68.04;101573.09;5060738;28;20045;-61
2023/08/18 08:23:08;;;;;;;15.18;11.05;;;;;;;19.40;68.44;101571.19;5059385;28;20050;-62
2023/08/18 08:25:36;;;;;;;12.38;8.75;;;;;;;19.40;68.42;101573.09;5042928;28;20050;-61
2023/08/18 08:28:04;;;;;;;14.88;9.40;;;;;;;19.41;68.26;101572.00;5052477;28;20490;-61
2023/08/18 08:30:32;;;;;;;14.05;9.07;;;;;;;19.41;68.33;101566.56;5062400;28;20064;-61
2023/08/18 08:33:04;;;;;;;14.18;9.23;;;;;;;19.41;68.17;101572.84;5062769;28;20076;-61
2023/08/18 08:35:35;;;;;;;12.18;8.38;;;;;;;19.41;68.18;101575.56;5048909;28;20079;-61
2023/08/18 08:38:02;;;;;;;11.57;8.85;;;;;;;19.43;68.02;101586.19;5107649;27;20043;-63
2023/08/18 08:40:30;;;;;;;10.95;8.13;;;;;;;19.44;67.87;101587.84;5062598;28;20053;-62
2023/08/18 08:42:59;;;;;;;9.52;7.97;;;;;;;19.45;67.80;101594.94;5062359;28;20059;-61
2023/08/18 08:45:31;;;;;;;12.27;8.93;;;;;;;19.45;67.94;101593.03;5047028;28;20514;-62
2023/08/18 08:48:03;;;;;;;9.90;7.97;;;;;;;19.45;68.10;101584.84;5042558;28;20070;-62
2023/08/18 08:50:38;;;;;;;11.73;8.68;;;;;;;19.46;68.05;101594.69;5042642;28;20116;-62
2023/08/18 08:53:10;;;;;;;9.77;7.45;;;;;;;19.47;68.10;101599.03;5042333;28;20049;-62
2023/08/18 08:55:39;;;;;;;11.13;8.65;;;;;;;19.48;68.04;101597.97;5042076;28;20042;-62
2023/08/18 08:58:07;;;;;;;13.07;10.05;;;;;;;19.48;67.83;101597.97;5042141;28;20049;-62
2023/08/18 09:00:41;;;;;;;15.63;10.85;;;;;;;19.48;68.39;101603.41;5050192;28;20064;-62
2023/08/18 09:03:10;;;;;;;15.07;10.38;;;;;;;19.47;68.34;101599.03;5064517;28;20053;-62
2023/08/18 09:05:40;;;;;;;14.93;10.75;;;;;;;19.48;68.40;101595.25;5065973;28;20076;-62
2023/08/18 09:08:08;;;;;;;15.27;10.43;;;;;;;19.48;68.32;101600.69;5055731;28;20050;-62
2023/08/18 09:10:38;;;;;;;14.60;10.57;;;;;;;19.49;68.38;101590.59;5045978;28;20053;-61
2023/08/18 09:13:07;;;;;;;12.32;9.35;;;;;;;19.49;68.42;101596.88;5058152;28;20049;-61
2023/08/18 09:15:36;;;;;;;13.38;9.50;;;;;;;19.51;68.29;101602.06;5060958;28;20074;-62
2023/08/18 09:18:04;;;;;;;12.77;9.93;;;;;;;19.52;68.03;101600.19;5045649;28;20057;-61
2023/08/18 09:20:32;;;;;;;13.98;9.65;;;;;;;19.53;67.96;101599.13;5045728;28;20050;-61
2023/08/18 09:23:02;;;;;;;16.40;10.45;;;;;;;19.54;68.28;101595.31;5046089;28;20060;-61
2023/08/18 09:25:34;;;;;;;12.50;9.57;;;;;;;19.54;68.35;101589.84;5050394;28;20053;-60
2023/08/18 09:28:03;;;;;;;11.63;9.98;;;;;;;19.55;68.33;101586.84;5105414;27;20046;-62
2023/08/18 09:30:35;;;;;;;12.40;9.38;;;;;;;19.55;68.18;101583.31;5102950;27;20132;-62
2023/08/18 09:33:04;;;;;;;14.38;9.77;;;;;;;19.47;68.13;101566.34;5070533;27;20058;-62
2023/08/18 09:35:34;;;;;;;13.05;10.32;;;;;;;19.57;68.17;101581.97;5140638;27;20043;-61
2023/08/18 09:38:03;;;;;;;12.27;9.13;;;;;;;19.58;68.14;101586.34;5127943;27;20047;-61
2023/08/18 09:40:31;;;;;;;12.07;9.00;;;;;;;19.58;68.13;101574.59;5150026;27;20510;-61
2023/08/18 09:42:59;;;;;;;15.40;11.02;;;;;;;19.59;68.32;101578.97;5080409;27;20113;-62
2023/08/18 09:45:32;;;;;;;14.18;10.55;;;;;;;19.59;68.67;101574.34;5044925;28;20079;-62
2023/08/18 09:48:04;;;;;;;12.90;9.82;;;;;;;19.59;68.40;101579.78;5045124;28;20624;-62
2023/08/18 09:50:33;;;;;;;14.60;9.90;;;;;;;19.60;68.38;101580.63;5045418;28;20053;-61
2023/08/18 09:53:06;;;;;;;13.02;9.82;;;;;;;19.61;68.28;101582.25;5041537;28;20056;-62
2023/08/18 09:55:39;;;;;;;14.32;10.52;;;;;;;19.62;68.32;101568.34;5062814;28;20152;-62
2023/08/18 09:58:15;;;;;;;13.63;10.57;;;;;;;19.62;68.56;101573.81;5064784;27;20110;-62
2023/08/18 10:00:44;;;;;;;14.73;10.60;;;;;;;19.63;68.54;101571.91;5064868;28;20049;-62
2023/08/18 10:03:16;;;;;;;15.23;11.07;;;;;;;19.64;68.77;101568.91;5045873;28;20411;-61
2023/08/18 10:05:46;;;;;;;23.20;12.00;;;;;;;19.64;69.02;101570.81;5045204;28;20106;-62
2023/08/18 10:08:15;;;;;;;15.55;10.73;;;;;;;19.66;69.42;101576.84;5044923;28;20071;-62
2023/08/18 10:10:43;;;;;;;14.70;11.00;;;;;;;19.65;68.88;101573.28;5044878;28;20078;-62
2023/08/18 10:13:13;;;;;;;17.17;12.75;;;;;;;19.66;68.88;101572.19;5044619;28;20053;-62
2023/08/18 10:15:43;;;;;;;15.65;12.77;;;;;;;19.68;69.28;101563.75;5044071;28;20053;-62
2023/08/18 10:18:11;;;;;;;16.00;10.48;;;;;;;19.67;69.29;101551.19;5024952;28;20057;-62
2023/08/18 10:20:49;;;;;;;14.60;10.65;;;;;;;19.67;69.06;101562.09;5025119;28;20072;-61
2023/08/18 10:23:19;;;;;;;16.33;12.57;;;;;;;19.67;69.39;101560.19;5030323;28;20132;-62
2023/08/18 10:25:51;;;;;;;20.73;13.68;;;;;;;19.67;69.40;101554.75;5045268;28;20045;-61
2023/08/18 10:28:19;;;;;;;18.58;12.73;;;;;;;19.69;69.72;101538.13;5120631;27;20124;-61
2023/08/18 10:30:51;;;;;;;19.20;14.20;;;;;;;19.69;69.57;101544.41;5116761;27;20160;-62
2023/08/18 10:33:30;;;;;;;17.45;12.30;;;;;;;19.71;69.72;101541.41;5064785;28;20060;-61
2023/08/18 10:36:00;;;;;;;19.77;14.38;;;;;;;19.71;69.89;101547.69;5063215;28;20067;-61
2023/08/18 10:38:30;;;;;;;20.95;15.02;;;;;;;19.73;70.10;101550.13;5142065;27;20083;-61
2023/08/18 10:40:58;;;;;;;16.85;12.88;;;;;;;19.74;69.85;101538.16;5149149;27;20095;-62
2023/08/18 10:43:27;;;;;;;19.27;14.13;;;;;;;19.76;70.01;101536.78;5103730;27;20074;-61
2023/08/18 10:45:58;;;;;;;20.70;13.80;;;;;;;19.68;70.03;101520.13;5064065;28;20049;-61
2023/08/18 10:48:31;;;;;;;17.42;13.88;;;;;;;19.80;69.96;101537.09;5064141;28;20109;-62
2023/08/18 10:50:59;;;;;;;19.42;13.25;;;;;;;19.81;69.97;101530.53;5059786;28;20136;-61
2023/08/18 10:53:36;;;;;;;18.33;12.02;;;;;;;19.83;69.72;101533.81;5057514;28;20623;-62
2023/08/18 10:56:05;;;;;;;20.30;13.23;;;;;;;19.85;69.76;101528.09;5064386;28;20117;-61
2023/08/18 10:58:34;;;;;;;19.50;13.57;;;;;;;19.87;69.76;101528.66;5062274;27;20097;-62
2023/08/18 11:01:03;;;;;;;21.70;16.08;;;;;;;19.90;69.84;101522.66;5063843;28;20049;-62
2023/08/18 11:03:32;;;;;;;20.17;15.55;;;;;;;19.90;69.90;101512.56;5064365;27;20068;-62
2023/08/18 11:06:00;;;;;;;19.42;14.68;;;;;;;19.92;69.77;101513.13;5053185;28;20102;-61
2023/08/18 11:08:28;;;;;;;20.55;14.43;;;;;;;19.94;69.62;101515.56;5044063;28;20053;-61
2023/08/18 11:10:58;;;;;;;18.67;15.05;;;;;;;19.96;69.72;101514.22;5044132;28;20050;-61
2023/08/18 11:13:28;;;;;;;19.85;15.15;;;;;;;19.98;69.76;101517.50;5044012;28;20075;-61
2023/08/18 11:15:58;;;;;;;20.42;15.30;;;;;;;19.99;69.70;101510.97;5043610;28;20449;-62
2023/08/18 11:18:26;;;;;;;21.15;16.08;;;;;;;20.01;69.67;101503.31;5044001;28;20049;-62
2023/08/18 11:20:57;;;;;;;24.65;15.07;;;;;;;20.04;69.60;101507.44;5043442;28;20053;-62
2023/08/18 11:23:26;;;;;;;22.90;17.35;;;;;;;20.05;69.57;101512.63;5043563;28;20049;-62
2023/08/18 11:25:54;;;;;;;19.33;15.68;;;;;;;20.08;69.67;101509.34;5043041;28;20384;-62